Time;durP1;ratioP1;P1;durP2;ratioP2;P2;SDS_P1;SDS_P2;PMS_P1;PMS_P2;Temp;Humidity;BMP_temperature;BMP_pressure;BME280_temperature;BME280_humidity;BME280_pressure;Samples;Min_cycle;Max_cycle;Signal;HPM_P1;HPM_P2
2024/03/28 00:01:16;;;;;;;8.90;4.80;;;;;;;9.79;84.90;96773.05;273196;1269;22241;-89
2024/03/28 00:07:18;;;;;;;11.00;5.70;;;;;;;9.78;85.05;96762.70;272925;1269;23915;-89
2024/03/28 00:13:20;;;;;;;15.40;6.40;;;;;;;9.75;85.27;96754.10;273279;1269;22280;-90
2024/03/28 00:19:22;;;;;;;12.60;6.20;;;;;;;9.67;85.68;96746.23;272477;1269;22332;-90
2024/03/28 00:25:24;;;;;;;14.00;5.80;;;;;;;9.53;85.92;96732.30;273346;1268;22238;-89
2024/03/28 00:31:26;;;;;;;10.90;6.00;;;;;;;9.32;86.61;96724.17;271829;1269;22469;-89
2024/03/28 00:37:28;;;;;;;12.90;5.30;;;;;;;9.30;87.86;96718.04;271146;1269;22538;-90
2024/03/28 00:43:30;;;;;;;10.80;5.30;;;;;;;9.38;88.24;96712.55;270242;1269;147814;-89
2024/03/28 00:49:32;;;;;;;11.80;4.90;;;;;;;9.46;88.71;96710.52;270448;1269;23260;-90
2024/03/28 00:55:34;;;;;;;10.70;4.10;;;;;;;9.53;89.09;96701.78;273089;1269;22278;-89
2024/03/28 01:01:35;;;;;;;10.10;4.80;;;;;;;9.61;89.38;96699.27;273049;1269;23961;-89
2024/03/28 01:07:37;;;;;;;10.50;5.50;;;;;;;9.69;89.55;96691.61;273113;1259;23696;-91
2024/03/28 01:13:41;;;;;;;11.70;3.90;;;;;;;9.78;89.94;96681.44;273098;1254;22391;-89
2024/03/28 01:19:43;;;;;;;12.50;5.50;;;;;;;9.76;90.35;96676.17;273112;1269;22888;-90
2024/03/28 01:25:44;;;;;;;17.40;6.10;;;;;;;9.60;90.27;96675.98;273080;1269;22284;-89
2024/03/28 01:31:46;;;;;;;16.10;7.00;;;;;;;9.50;90.57;96667.38;272476;1268;22525;-89
2024/03/28 01:37:48;;;;;;;14.20;5.70;;;;;;;9.46;90.74;96674.72;270367;1269;23612;-89
2024/03/28 01:43:50;;;;;;;14.70;6.50;;;;;;;9.45;90.95;96682.09;270473;1269;23019;-90
2024/03/28 01:49:53;;;;;;;14.20;5.80;;;;;;;9.44;91.28;96676.30;273192;1269;22574;-90
2024/03/28 01:55:55;;;;;;;12.80;6.10;;;;;;;9.42;91.56;96675.11;269595;1268;22610;-88
2024/03/28 02:01:57;;;;;;;13.90;6.20;;;;;;;9.36;91.74;96665.58;272021;1259;112886;-89
2024/03/28 02:08:02;;;;;;;13.40;5.80;;;;;;;9.26;91.76;96664.05;271411;1269;22563;-90
2024/03/28 02:14:05;;;;;;;13.80;5.50;;;;;;;9.20;92.31;96667.30;271488;1269;22585;-90
2024/03/28 02:20:09;;;;;;;12.30;5.00;;;;;;;9.10;92.90;96657.68;270882;1269;22531;-90
2024/03/28 02:26:13;;;;;;;32.40;9.30;;;;;;;8.99;93.26;96646.60;271116;1269;24303;-91
2024/03/28 02:32:15;;;;;;;19.80;6.90;;;;;;;8.93;93.54;96628.33;270274;1269;22649;-90
2024/03/28 02:38:26;;;;;;;18.70;6.70;;;;;;;8.90;94.40;96624.34;270732;1269;22257;-90
2024/03/28 02:44:28;;;;;;;18.70;6.80;;;;;;;8.90;94.27;96631.05;271127;1269;23415;-90
2024/03/28 02:50:35;;;;;;;21.70;6.70;;;;;;;8.85;94.40;96631.52;270915;1269;22567;-91
2024/03/28 02:56:39;;;;;;;23.80;6.80;;;;;;;8.89;94.92;96637.84;271112;1269;24802;-91
2024/03/28 03:02:43;;;;;;;22.40;6.40;;;;;;;8.96;95.02;96620.09;270908;1269;22572;-89
2024/03/28 03:08:45;;;;;;;18.80;6.40;;;;;;;8.98;95.56;96607.18;270928;1267;22677;-89
2024/03/28 03:14:52;;;;;;;18.80;7.00;;;;;;;9.12;96.27;96597.19;270124;1269;22535;-90
2024/03/28 03:21:03;;;;;;;15.70;5.10;;;;;;;9.20;96.54;96587.98;270063;1269;22518;-91
2024/03/28 03:27:15;;;;;;;26.00;6.70;;;;;;;9.20;96.60;96582.84;270105;1269;23968;-88
2024/03/28 03:39:45;;;;;;;26.90;7.20;;;;;;;9.37;96.67;96558.98;270129;1269;22546;-89
2024/03/28 03:45:47;;;;;;;27.50;7.20;;;;;;;9.47;97.13;96549.46;271422;1269;22228;-90
2024/03/28 03:51:51;;;;;;;23.20;6.70;;;;;;;9.53;96.99;96547.45;271242;1269;22415;-90
2024/03/28 03:57:55;;;;;;;25.60;6.60;;;;;;;9.57;97.23;96550.86;270913;1269;22555;-90
2024/03/28 04:03:56;;;;;;;35.30;8.40;;;;;;;9.59;97.51;96533.52;270896;1264;22461;-89
2024/03/28 04:09:59;;;;;;;31.20;7.40;;;;;;;9.63;97.84;96521.55;271732;1269;22262;-90
2024/03/28 04:16:02;;;;;;;34.60;8.30;;;;;;;9.70;98.10;96509.83;271477;1269;22357;-90
2024/03/28 04:22:10;;;;;;;33.50;7.90;;;;;;;9.74;97.82;96516.04;270820;1253;22605;-90
2024/03/28 04:28:11;;;;;;;30.80;9.00;;;;;;;9.77;98.08;96515.27;270169;1269;23238;-91
2024/03/28 04:34:15;;;;;;;33.30;8.70;;;;;;;9.79;98.23;96513.89;270971;1269;22373;-90
2024/03/28 04:40:19;;;;;;;32.70;9.30;;;;;;;9.76;98.21;96518.88;270487;1269;23567;-90
2024/03/28 04:46:21;;;;;;;28.20;8.30;;;;;;;9.62;98.28;96515.56;272218;1269;22566;-90
2024/03/28 04:52:24;;;;;;;33.70;8.50;;;;;;;9.59;98.91;96527.34;271000;1269;22717;-90
2024/03/28 04:58:27;;;;;;;43.20;9.80;;;;;;;9.59;99.28;96530.30;270340;1269;22427;-91
2024/03/28 05:04:28;;;;;;;41.00;9.20;;;;;;;9.57;99.51;96526.69;272110;1269;22544;-90
2024/03/28 05:10:31;;;;;;;45.60;9.30;;;;;;;9.60;99.35;96551.03;271836;1269;25397;-90
2024/03/28 05:16:33;;;;;;;25.80;7.70;;;;;;;9.68;99.88;96568.94;271092;1269;22578;-90
2024/03/28 05:22:36;;;;;;;44.80;10.40;;;;;;;9.82;99.97;96576.96;270349;1269;22572;-90
2024/03/28 05:28:38;;;;;;;50.90;8.50;;;;;;;10.10;100.00;96573.92;270519;1269;25350;-91
2024/03/28 05:34:42;;;;;;;44.60;10.30;;;;;;;10.60;99.95;96568.30;271593;1269;23166;-92
2024/03/28 05:40:44;;;;;;;38.90;8.20;;;;;;;11.25;99.50;96550.77;272088;1257;22396;-92
2024/03/28 05:47:11;;;;;;;;;;;;;;;;;;;;;
2024/03/28 05:53:48;;;;;;;40.80;7.60;;;;;;;12.22;97.75;96526.88;272125;1269;22372;-91
2024/03/28 06:00:28;;;;;;;41.50;8.70;;;;;;;12.55;96.48;96534.58;272305;1269;22551;-90
2024/03/28 06:07:01;;;;;;;;;;;;;;;;;;;;;
2024/03/28 06:13:21;;;;;;;;;;;;;;;;;;;;;
2024/03/28 06:20:11;;;;;;;49.20;7.00;;;;;;;12.97;94.71;96544.58;272868;1269;22357;-90
2024/03/28 06:26:27;;;;;;;42.20;7.60;;;;;;;12.94;94.43;96550.64;271813;1269;22619;-90
2024/03/28 06:32:56;;;;;;;41.20;8.80;;;;;;;12.90;94.30;96543.36;272072;1269;22975;-91
2024/03/28 06:39:36;;;;;;;;;;;;;;;;;;;;;
2024/03/28 06:46:24;;;;;;;42.90;8.90;;;;;;;12.82;94.55;96560.27;272135;1269;22930;-91
2024/03/28 06:53:20;;;;;;;35.00;7.90;;;;;;;12.90;94.39;96585.79;270563;1264;22697;-91
2024/03/28 06:59:38;;;;;;;40.10;7.90;;;;;;;12.99;94.45;96588.13;271937;1269;25424;-91
2024/03/28 07:06:19;;;;;;;43.40;7.10;;;;;;;13.06;94.50;96587.96;271277;1269;22575;-91
2024/03/28 07:13:00;;;;;;;39.40;7.40;;;;;;;13.18;94.26;96595.61;271394;1269;25240;-91
2024/03/28 07:19:33;;;;;;;35.90;7.30;;;;;;;13.39;94.01;96611.39;271589;1270;23119;-91
2024/03/28 07:25:56;;;;;;;34.10;6.80;;;;;;;13.59;93.75;96613.26;271265;1264;22588;-91
2024/03/28 07:32:49;;;;;;;33.10;6.40;;;;;;;13.80;93.67;96597.05;271287;1269;23772;-91
2024/03/28 07:39:05;;;;;;;34.50;6.30;;;;;;;13.93;93.36;96589.04;271777;1270;22886;-90
2024/03/28 07:45:16;;;;;;;33.20;6.30;;;;;;;14.02;92.75;96592.71;271364;1269;22539;-90
2024/03/28 07:52:02;;;;;;;;;;;;;;;;;;;;;
2024/03/28 07:58:21;;;;;;;32.20;7.10;;;;;;;14.23;92.56;96611.82;272556;1262;22416;-88
2024/03/28 08:04:49;;;;;;;39.20;8.40;;;;;;;14.43;92.23;96616.21;272432;1268;22629;-90
2024/03/28 08:11:06;;;;;;;30.40;6.70;;;;;;;14.80;91.15;96613.36;271621;1269;23440;-90
2024/03/28 08:17:52;;;;;;;;;;;;;;;;;;;;;
2024/03/28 08:24:25;;;;;;;17.20;4.50;;;;;;;15.05;90.80;96604.63;271798;1269;22977;-92
2024/03/28 08:31:00;;;;;;;17.40;3.10;;;;;;;15.21;88.91;96608.77;271266;1269;22561;-91
2024/03/28 08:44:41;;;;;;;8.10;2.10;;;;;;;15.82;82.95;96620.29;272693;1269;22391;-92
2024/03/28 08:51:37;;;;;;;;;;;;;;;;;;;;;
2024/03/28 08:58:18;;;;;;;8.20;1.40;;;;;;;16.62;80.08;96643.85;270957;1269;23160;-91
2024/03/28 09:04:21;;;;;;;3.70;0.90;;;;;;;16.49;78.88;96664.46;271403;1269;22575;-89
2024/03/28 09:10:57;;;;;;;2.40;0.50;;;;;;;16.29;75.96;96683.20;271973;1269;23294;-91
2024/03/28 09:17:01;;;;;;;;;;;;;;;16.18;73.06;96696.86;271400;1269;23280;-91
2024/03/28 09:23:34;;;;;;;4.30;0.60;;;;;;;16.53;70.03;96707.05;271685;1266;22405;-91
2024/03/28 09:42:22;;;;;;;3.00;0.50;;;;;;;17.54;62.87;96707.21;262938;1295;3485530;-93
2024/03/28 09:48:52;;;;;;;1.60;0.50;;;;;;;17.61;60.89;96721.55;269486;1279;22631;-92
2024/03/28 09:55:37;;;;;;;2.30;0.40;;;;;;;17.94;59.01;96732.89;270472;1272;23763;-91
2024/03/28 10:02:17;;;;;;;3.30;0.50;;;;;;;17.75;55.44;96747.09;272666;1273;23944;-93
2024/03/28 10:08:36;;;;;;;3.10;0.40;;;;;;;17.56;53.07;96756.14;270186;1272;22555;-94
2024/03/28 10:15:33;;;;;;;;;;;;;;;;;;;;;
2024/03/28 10:22:17;;;;;;;;;;;;;;;18.05;52.57;96790.30;272404;1273;22638;-92
2024/03/28 10:28:30;;;;;;;3.10;0.70;;;;;;;18.40;51.39;96804.63;270194;1272;22634;-93
2024/03/28 10:34:35;;;;;;;4.00;0.60;;;;;;;18.22;50.39;96809.29;270021;1273;22379;-94
2024/03/28 10:40:49;;;;;;;2.70;1.00;;;;;;;17.91;50.62;96812.36;270200;1272;23004;-92
2024/03/28 10:47:01;;;;;;;2.80;0.80;;;;;;;17.91;50.41;96819.15;269800;1273;25269;-92
2024/03/28 10:53:13;;;;;;;1.80;0.70;;;;;;;17.72;50.11;96828.45;270000;1273;22617;-93
2024/03/28 10:59:23;;;;;;;3.40;0.70;;;;;;;17.49;50.63;96833.75;270038;1264;22627;-91
2024/03/28 11:05:29;;;;;;;2.40;1.10;;;;;;;17.38;51.05;96850.34;270291;1272;22670;-94
2024/03/28 11:11:33;;;;;;;2.00;0.60;;;;;;;17.60;52.01;96853.13;272451;1264;22892;-91
2024/03/28 11:17:43;;;;;;;4.10;1.30;;;;;;;17.63;52.06;96870.02;272078;1263;22577;-93
2024/03/28 11:23:47;;;;;;;2.10;0.70;;;;;;;17.40;52.03;96870.40;270075;1257;25318;-91
2024/03/28 11:30:18;;;;;;;;;;;;;;;;;;;;;
2024/03/28 11:36:31;;;;;;;4.40;0.70;;;;;;;16.71;51.54;96885.94;270169;1261;23076;-93
2024/03/28 11:42:38;;;;;;;0.90;0.30;;;;;;;16.31;53.22;96898.66;269991;1272;22633;-91
2024/03/28 11:48:41;;;;;;;2.50;0.60;;;;;;;16.15;54.67;96906.45;270007;1273;22563;-92
2024/03/28 11:54:43;;;;;;;1.50;0.40;;;;;;;15.57;55.39;96915.65;270270;1272;22527;-92
2024/03/28 12:01:05;;;;;;;3.30;0.40;;;;;;;14.80;58.12;96930.63;269963;1273;22570;-92
2024/03/28 12:07:08;;;;;;;0.60;0.20;;;;;;;14.21;60.50;96933.68;270058;1272;22570;-93
2024/03/28 12:13:12;;;;;;;1.30;0.50;;;;;;;13.78;62.73;96938.78;271026;1267;23841;-92
2024/03/28 12:20:02;;;;;;;2.30;0.60;;;;;;;13.57;64.51;96963.00;270953;1267;22531;-92
2024/03/28 12:26:05;;;;;;;0.80;0.00;;;;;;;13.53;65.30;96972.16;270627;1267;22370;-92
2024/03/28 12:32:25;;;;;;;0.40;0.00;;;;;;;13.74;64.52;96963.94;270868;1265;22503;-92
2024/03/28 12:38:29;;;;;;;0.50;0.30;;;;;;;13.94;64.08;96970.87;271298;1267;22560;-92
2024/03/28 12:44:32;;;;;;;1.10;0.30;;;;;;;14.22;63.65;96973.59;271608;1267;23526;-91
2024/03/28 12:50:45;;;;;;;0.60;0.20;;;;;;;14.83;62.32;96971.35;271400;1267;23713;-92
2024/03/28 12:56:51;;;;;;;0.10;0.10;;;;;;;15.18;59.93;96968.14;271267;1267;22758;-92
2024/03/28 13:02:54;;;;;;;0.50;0.30;;;;;;;15.34;59.71;96990.48;271285;1253;24219;-94
2024/03/28 13:08:58;;;;;;;0.60;0.30;;;;;;;15.58;58.25;96994.32;271529;1264;22595;-92
2024/03/28 13:15:07;;;;;;;2.10;0.40;;;;;;;15.51;58.09;96987.23;271486;1267;22534;-91
2024/03/28 13:21:11;;;;;;;2.90;0.30;;;;;;;15.40;58.05;96987.57;271027;1267;22574;-92
2024/03/28 13:27:16;;;;;;;1.10;0.40;;;;;;;15.42;57.55;97015.77;270894;1260;22616;-92
2024/03/28 13:33:23;;;;;;;2.10;0.50;;;;;;;15.50;57.72;97031.45;271641;1267;22585;-94
2024/03/28 13:39:25;;;;;;;1.00;0.50;;;;;;;15.49;57.43;97027.50;271329;1267;22517;-94
2024/03/28 13:45:27;;;;;;;1.90;0.60;;;;;;;15.88;57.13;97027.39;271140;1267;23771;-94
2024/03/28 13:51:40;;;;;;;0.50;0.40;;;;;;;16.08;56.12;97036.17;271305;1267;22548;-93
2024/03/28 13:57:49;;;;;;;2.50;0.80;;;;;;;16.09;55.75;97049.63;271727;1267;22525;-95
2024/03/28 14:03:58;;;;;;;0.60;0.20;;;;;;;16.05;54.72;97054.84;271710;1267;23592;-93
2024/03/28 14:10:04;;;;;;;3.80;1.20;;;;;;;16.06;54.32;97052.58;273358;1267;22456;-93
2024/03/28 14:16:10;;;;;;;0.70;0.30;;;;;;;16.03;53.06;97053.21;273380;1267;24199;-92
2024/03/28 14:22:14;;;;;;;5.10;0.50;;;;;;;16.01;52.68;97048.86;272226;1267;22557;-94
2024/03/28 14:28:30;;;;;;;1.40;0.30;;;;;;;16.04;52.48;97039.91;271854;1267;23294;-93
2024/03/28 14:34:56;;;;;;;1.70;0.20;;;;;;;16.01;52.07;97025.78;271844;1267;24036;-93
2024/03/28 14:41:36;;;;;;;;;;;;;;;;;;;;;
2024/03/28 14:47:39;;;;;;;1.80;0.20;;;;;;;15.82;50.90;97029.08;271782;1267;22529;-93
2024/03/28 14:53:42;;;;;;;0.50;0.30;;;;;;;15.65;50.05;97036.53;271161;1267;23446;-93
2024/03/28 14:59:56;;;;;;;0.60;0.30;;;;;;;15.47;49.75;97032.81;271658;1259;24459;-93
2024/03/28 15:06:08;;;;;;;0.90;0.30;;;;;;;15.31;49.66;97037.38;271789;1267;23544;-94
2024/03/28 15:12:22;;;;;;;1.40;0.30;;;;;;;15.24;49.50;97048.92;273136;1267;23574;-93
2024/03/28 15:18:25;;;;;;;6.70;0.60;;;;;;;15.21;49.43;97056.27;271559;1267;22594;-92
2024/03/28 15:24:42;;;;;;;0.40;0.10;;;;;;;15.11;49.13;97066.33;271215;1267;22923;-93
2024/03/28 15:30:47;;;;;;;1.50;0.40;;;;;;;14.97;49.27;97070.63;271109;1267;23423;-94
2024/03/28 15:36:49;;;;;;;0.50;0.30;;;;;;;14.80;49.54;97085.41;271308;1267;22545;-94
2024/03/28 15:42:53;;;;;;;0.60;0.30;;;;;;;14.57;49.55;97091.52;271361;1267;23866;-93
2024/03/28 15:49:00;;;;;;;1.00;0.30;;;;;;;14.36;49.34;97095.78;271103;1267;23642;-92
2024/03/28 15:55:30;;;;;;;0.60;0.40;;;;;;;14.24;49.81;97100.20;271258;1267;22637;-92
2024/03/28 16:01:41;;;;;;;4.60;0.40;;;;;;;14.03;50.76;97106.66;270741;1270;22997;-92
2024/03/28 16:07:43;;;;;;;3.70;0.50;;;;;;;13.84;51.00;97107.67;270551;1270;23773;-91
2024/03/28 16:13:46;;;;;;;2.00;0.70;;;;;;;13.64;51.62;97115.70;270843;1270;22532;-94
2024/03/28 16:19:49;;;;;;;0.50;0.20;;;;;;;13.41;52.08;97130.32;270468;1270;22571;-94
2024/03/28 16:25:56;;;;;;;1.80;0.40;;;;;;;13.27;52.30;97133.70;270781;1271;22635;-94
2024/03/28 16:32:00;;;;;;;;;;;;;;;13.14;53.06;97138.96;271113;1267;22600;-93
2024/03/28 16:38:25;;;;;;;1.30;0.90;;;;;;;12.94;53.67;97150.02;271759;1267;22664;-92
2024/03/28 16:44:28;;;;;;;2.30;1.00;;;;;;;12.82;54.37;97158.98;271574;1267;22537;-90
2024/03/28 16:50:41;;;;;;;2.30;1.00;;;;;;;12.67;54.69;97162.39;258050;1267;20002868;-93
2024/03/28 16:56:46;;;;;;;2.30;0.90;;;;;;;12.51;54.99;97164.40;273479;1267;22289;-93
2024/03/28 17:03:29;;;;;;;3.40;0.90;;;;;;;12.34;55.67;97161.55;273392;1251;22387;-93
2024/03/28 17:09:38;;;;;;;2.80;1.10;;;;;;;12.07;56.06;97168.33;273427;1269;22610;-93
2024/03/28 17:16:15;;;;;;;2.30;0.90;;;;;;;11.87;56.49;97173.10;273447;1267;22431;-92
2024/03/28 17:22:42;;;;;;;3.70;1.20;;;;;;;11.81;56.69;97177.30;273418;1267;22486;-92
2024/03/28 17:29:17;;;;;;;2.80;1.30;;;;;;;11.81;57.13;97179.98;273291;1267;22630;-93
2024/03/28 17:35:42;;;;;;;4.00;1.80;;;;;;;11.79;57.45;97180.72;272741;1267;24202;-93
2024/03/28 17:41:50;;;;;;;3.50;1.90;;;;;;;11.82;57.71;97185.20;272031;1267;23204;-92
2024/03/28 17:47:57;;;;;;;5.60;2.90;;;;;;;11.85;58.12;97188.74;271874;1267;23693;-93
2024/03/28 17:54:23;;;;;;;9.10;4.60;;;;;;;11.79;58.35;97178.05;271789;1267;22543;-93
2024/03/28 18:00:49;;;;;;;7.70;4.00;;;;;;;11.73;58.62;97179.23;271677;1265;23148;-93
2024/03/28 18:06:57;;;;;;;15.40;6.60;;;;;;;11.60;59.03;97181.60;272029;1267;22567;-93
2024/03/28 18:13:24;;;;;;;18.00;7.50;;;;;;;11.41;59.08;97187.70;272168;1267;22350;-93
2024/03/28 18:19:35;;;;;;;33.70;13.50;;;;;;;11.24;59.85;97194.57;272341;1267;23683;-93
2024/03/28 18:25:42;;;;;;;17.70;7.80;;;;;;;10.96;60.28;97197.92;271973;1267;23436;-93
2024/03/28 18:31:48;;;;;;;18.60;7.30;;;;;;;10.61;61.33;97202.63;272099;1267;22720;-93
2024/03/28 18:38:11;;;;;;;19.30;10.00;;;;;;;10.37;61.92;97202.89;272016;1267;22574;-92
2024/03/28 18:44:16;;;;;;;19.50;9.30;;;;;;;10.30;62.41;97209.65;272178;1267;23823;-92
2024/03/28 18:50:24;;;;;;;23.90;11.40;;;;;;;10.27;62.92;97212.05;272072;1267;23594;-92
2024/03/28 18:56:57;;;;;;;27.10;10.40;;;;;;;10.20;63.38;97221.37;272315;1267;22518;-92
2024/03/28 19:03:28;;;;;;;18.10;6.70;;;;;;;10.15;63.84;97228.86;272345;1257;22622;-91
2024/03/28 19:09:50;;;;;;;23.80;12.30;;;;;;;10.33;64.40;97227.59;272555;1267;22555;-93
2024/03/28 19:16:06;;;;;;;21.90;11.90;;;;;;;10.35;64.83;97229.96;273546;1267;22408;-93
2024/03/28 19:22:16;;;;;;;19.00;9.80;;;;;;;10.35;65.09;97232.70;273308;1267;22406;-92
2024/03/28 19:28:21;;;;;;;25.70;12.40;;;;;;;10.41;65.14;97233.77;273325;1267;22355;-92
2024/03/28 19:34:24;;;;;;;12.90;5.60;;;;;;;10.55;65.03;97223.61;273284;1267;22453;-90
2024/03/28 19:40:32;;;;;;;15.40;5.80;;;;;;;10.84;64.95;97220.05;273049;1267;22380;-92
2024/03/28 19:46:48;;;;;;;12.60;6.70;;;;;;;10.96;65.33;97211.30;273322;1267;22279;-92
2024/03/28 19:52:51;;;;;;;10.80;4.60;;;;;;;11.00;65.22;97207.32;273248;1267;22340;-91
2024/03/28 19:59:31;;;;;;;8.70;4.10;;;;;;;11.16;65.04;97203.95;273400;1267;22466;-91
2024/03/28 20:06:02;;;;;;;8.50;4.00;;;;;;;11.36;64.70;97213.66;273286;1267;22334;-92
2024/03/28 20:12:11;;;;;;;18.30;5.40;;;;;;;11.41;64.94;97222.71;273236;1267;22605;-92
2024/03/28 20:18:34;;;;;;;10.50;5.00;;;;;;;11.37;66.00;97218.40;272263;1253;22640;-91
2024/03/28 20:25:39;;;;;;;;;;;;;;;;;;;;;
2024/03/28 20:32:18;;;;;;;12.70;4.60;;;;;;;10.68;71.67;97222.61;272165;1267;22609;-91
2024/03/28 20:38:55;;;;;;;;;;;;;;;;;;;;;
2024/03/28 20:45:08;;;;;;;10.50;5.10;;;;;;;10.07;75.38;97195.15;271305;1267;22551;-92
2024/03/28 20:51:24;;;;;;;14.20;6.20;;;;;;;9.91;76.15;97202.58;271225;1267;22560;-93
2024/03/28 20:57:51;;;;;;;12.70;4.40;;;;;;;9.85;79.46;97218.52;271958;1267;22944;-93
2024/03/28 21:04:23;;;;;;;10.30;5.70;;;;;;;9.78;81.45;97216.83;272426;1267;22559;-93
2024/03/28 21:11:16;;;;;;;11.20;5.50;;;;;;;9.73;83.09;97216.04;272136;1252;22644;-92
2024/03/28 21:17:24;;;;;;;11.00;5.60;;;;;;;9.70;84.80;97242.86;271727;1267;22618;-92
2024/03/28 21:23:34;;;;;;;21.70;10.30;;;;;;;9.66;85.79;97231.66;271616;1269;22543;-91
2024/03/28 21:29:58;;;;;;;26.60;13.90;;;;;;;9.59;86.89;97237.84;271771;1267;22552;-93
2024/03/28 21:36:28;;;;;;;30.20;14.80;;;;;;;9.53;87.54;97246.04;271420;1267;22552;-92
2024/03/28 21:42:35;;;;;;;29.50;14.10;;;;;;;9.42;87.10;97246.17;267345;1267;5309282;-93
2024/03/28 21:48:59;;;;;;;25.70;14.50;;;;;;;9.36;87.41;97246.40;271516;1267;23461;-92
2024/03/28 21:55:33;;;;;;;67.10;27.40;;;;;;;9.35;88.97;97243.12;272468;1267;22340;-93
2024/03/28 22:02:07;;;;;;;20.50;9.90;;;;;;;9.39;89.64;97232.40;265747;1296;544785;-89
2024/03/28 22:08:22;;;;;;;28.20;14.60;;;;;;;9.43;90.09;97236.10;271065;1281;22366;-89
2024/03/28 22:14:24;;;;;;;31.90;16.20;;;;;;;9.40;92.36;97256.58;266791;1270;5548983;-91
2024/03/28 22:20:39;;;;;;;26.60;13.70;;;;;;;9.34;92.83;97287.47;271472;1270;24216;-92
2024/03/28 22:27:38;;;;;;;16.30;7.60;;;;;;;9.30;93.09;97326.83;270537;1269;22582;-91
2024/03/28 22:35:08;;;;;;;11.10;4.10;;;;;;;9.20;93.57;97382.46;272408;1270;22384;-91
2024/03/28 22:41:18;;;;;;;7.90;2.60;;;;;;;8.95;94.48;97422.67;270557;1270;22534;-90
2024/03/28 22:47:20;;;;;;;8.30;4.20;;;;;;;8.76;94.73;97443.56;270432;1270;22387;-90
2024/03/28 22:53:22;;;;;;;7.90;4.30;;;;;;;8.56;95.72;97458.64;270284;1270;22558;-90
2024/03/28 22:59:24;;;;;;;9.40;4.10;;;;;;;8.42;96.90;97477.50;270402;1270;22548;-89
2024/03/28 23:05:26;;;;;;;5.20;3.50;;;;;;;8.29;97.52;97504.27;270461;1270;25137;-90
2024/03/28 23:11:33;;;;;;;5.40;3.30;;;;;;;8.18;98.64;97521.98;270091;1269;22815;-91
2024/03/28 23:17:43;;;;;;;8.40;3.70;;;;;;;8.08;99.41;97539.20;270848;1271;22578;-91
2024/03/28 23:23:53;;;;;;;6.60;3.20;;;;;;;7.99;99.65;97561.80;270714;1270;22573;-91
2024/03/28 23:29:56;;;;;;;4.70;2.70;;;;;;;7.92;100.00;97578.92;270345;1270;22595;-91
2024/03/28 23:35:58;;;;;;;7.60;3.20;;;;;;;7.84;100.00;97596.84;269917;1270;22589;-91
2024/03/28 23:42:01;;;;;;;6.50;2.80;;;;;;;7.72;100.00;97620.73;270428;1269;23898;-90
2024/03/28 23:48:04;;;;;;;5.70;1.80;;;;;;;7.63;100.00;97650.54;270739;1267;22533;-91
2024/03/28 23:54:06;;;;;;;3.60;1.50;;;;;;;7.51;100.00;97667.64;270106;1267;23162;-90
